sensor_id;sensor_type;location;lat;lon;timestamp;pressure;altitude;pressure_sealevel;temperature;humidity
80116;BME280;69423;47.608;19.366;2023-07-13T00:00:29;98822.25;;;23.47;70.90
80116;BME280;69423;47.608;19.366;2023-07-13T00:01:02;98821.44;;;23.47;71.33
80116;BME280;69423;47.608;19.366;2023-07-13T00:01:33;98821.16;;;23.43;71.59
80116;BME280;69423;47.608;19.366;2023-07-13T00:02:05;98819.53;;;23.47;71.47
80116;BME280;69423;47.608;19.366;2023-07-13T00:02:36;98822.25;;;23.47;71.50
80116;BME280;69423;47.608;19.366;2023-07-13T00:03:07;98819.78;;;23.46;71.85
80116;BME280;69423;47.608;19.366;2023-07-13T00:03:38;98822.78;;;23.49;71.86
80116;BME280;69423;47.608;19.366;2023-07-13T00:04:13;98818.44;;;23.48;72.23
80116;BME280;69423;47.608;19.366;2023-07-13T00:04:44;98817.91;;;23.46;72.38
80116;BME280;69423;47.608;19.366;2023-07-13T00:05:15;98822.25;;;23.47;72.51
80116;BME280;69423;47.608;19.366;2023-07-13T00:05:46;98823.91;;;23.48;72.50
80116;BME280;69423;47.608;19.366;2023-07-13T00:06:18;98828.25;;;23.44;72.77
80116;BME280;69423;47.608;19.366;2023-07-13T00:06:51;98820.34;;;23.42;73.10
80116;BME280;69423;47.608;19.366;2023-07-13T00:07:22;98825.78;;;23.42;73.00
80116;BME280;69423;47.608;19.366;2023-07-13T00:07:54;98828.22;;;23.39;73.63
80116;BME280;69423;47.608;19.366;2023-07-13T00:08:25;98828.78;;;23.36;73.68
80116;BME280;69423;47.608;19.366;2023-07-13T00:08:56;98824.69;;;23.38;73.83
80116;BME280;69423;47.608;19.366;2023-07-13T00:09:28;98828.78;;;23.36;74.29
80116;BME280;69423;47.608;19.366;2023-07-13T00:09:59;98821.41;;;23.26;74.87
80116;BME280;69423;47.608;19.366;2023-07-13T00:10:30;98821.66;;;23.24;75.25
80116;BME280;69423;47.608;19.366;2023-07-13T00:11:02;98818.94;;;23.24;75.40
80116;BME280;69423;47.608;19.366;2023-07-13T00:11:33;98822.78;;;23.23;75.46
80116;BME280;69423;47.608;19.366;2023-07-13T00:12:04;98816.75;;;23.16;76.06
80116;BME280;69423;47.608;19.366;2023-07-13T00:12:38;98824.88;;;23.06;76.82
80116;BME280;69423;47.608;19.366;2023-07-13T00:13:09;98822.16;;;23.06;76.99
80116;BME280;69423;47.608;19.366;2023-07-13T00:13:40;98825.97;;;23.10;76.85
80116;BME280;69423;47.608;19.366;2023-07-13T00:14:12;98832.53;;;23.14;76.98
80116;BME280;69423;47.608;19.366;2023-07-13T00:14:43;98823.00;;;23.07;77.29
80116;BME280;69423;47.608;19.366;2023-07-13T00:15:18;98832.22;;;23.00;77.97
80116;BME280;69423;47.608;19.366;2023-07-13T00:15:53;98835.19;;;22.94;78.21
80116;BME280;69423;47.608;19.366;2023-07-13T00:16:25;98840.63;;;22.94;78.30
80116;BME280;69423;47.608;19.366;2023-07-13T00:16:56;98834.63;;;22.97;78.58
80116;BME280;69423;47.608;19.366;2023-07-13T00:17:28;98839.78;;;22.88;78.87
80116;BME280;69423;47.608;19.366;2023-07-13T00:17:59;98837.34;;;22.92;78.54
80116;BME280;69423;47.608;19.366;2023-07-13T00:18:31;98830.25;;;22.91;79.43
80116;BME280;69423;47.608;19.366;2023-07-13T00:19:03;98822.63;;;22.82;79.63
80116;BME280;69423;47.608;19.366;2023-07-13T00:19:34;98823.97;;;22.85;79.54
80116;BME280;69423;47.608;19.366;2023-07-13T00:20:07;98827.81;;;22.89;79.91
80116;BME280;69423;47.608;19.366;2023-07-13T00:20:38;98828.59;;;22.79;79.54
80116;BME280;69423;47.608;19.366;2023-07-13T00:21:12;98829.72;;;22.83;80.19
80116;BME280;69423;47.608;19.366;2023-07-13T00:21:43;98830.47;;;22.79;79.84
80116;BME280;69423;47.608;19.366;2023-07-13T00:22:14;98830.78;;;22.77;79.81
80116;BME280;69423;47.608;19.366;2023-07-13T00:22:45;98825.59;;;22.76;80.50
80116;BME280;69423;47.608;19.366;2023-07-13T00:23:16;98835.63;;;22.70;80.83
80116;BME280;69423;47.608;19.366;2023-07-13T00:23:48;98835.06;;;22.63;79.82
80116;BME280;69423;47.608;19.366;2023-07-13T00:24:19;98835.88;;;22.63;80.01
80116;BME280;69423;47.608;19.366;2023-07-13T00:24:54;98836.13;;;22.62;80.32
80116;BME280;69423;47.608;19.366;2023-07-13T00:25:28;98840.75;;;22.67;80.26
80116;BME280;69423;47.608;19.366;2023-07-13T00:26:00;98835.56;;;22.60;79.95
80116;BME280;69423;47.608;19.366;2023-07-13T00:26:31;98833.69;;;22.60;79.74
80116;BME280;69423;47.608;19.366;2023-07-13T00:27:03;98842.66;;;22.66;80.42
80116;BME280;69423;47.608;19.366;2023-07-13T00:27:34;98832.59;;;22.61;80.31
80116;BME280;69423;47.608;19.366;2023-07-13T00:28:05;98830.13;;;22.60;80.39
80116;BME280;69423;47.608;19.366;2023-07-13T00:28:37;98823.88;;;22.59;79.64
80116;BME280;69423;47.608;19.366;2023-07-13T00:29:08;98816.03;;;22.63;80.02
80116;BME280;69423;47.608;19.366;2023-07-13T00:29:39;98816.84;;;22.58;79.65
80116;BME280;69423;47.608;19.366;2023-07-13T00:30:11;98810.84;;;22.61;80.50
80116;BME280;69423;47.608;19.366;2023-07-13T00:30:42;98805.13;;;22.58;80.74
80116;BME280;69423;47.608;19.366;2023-07-13T00:31:13;98799.97;;;22.56;80.55
80116;BME280;69423;47.608;19.366;2023-07-13T00:31:45;98793.09;;;22.43;80.30
80116;BME280;69423;47.608;19.366;2023-07-13T00:32:16;98799.38;;;22.44;80.23
80116;BME280;69423;47.608;19.366;2023-07-13T00:32:48;98791.47;;;22.42;80.46
80116;BME280;69423;47.608;19.366;2023-07-13T00:33:19;98787.66;;;22.43;80.52
80116;BME280;69423;47.608;19.366;2023-07-13T00:33:50;98776.22;;;22.36;80.84
80116;BME280;69423;47.608;19.366;2023-07-13T00:34:21;98778.41;;;22.34;80.78
80116;BME280;69423;47.608;19.366;2023-07-13T00:35:23;98772.41;;;22.27;81.55
80116;BME280;69423;47.608;19.366;2023-07-13T00:35:55;98775.38;;;22.26;81.81
80116;BME280;69423;47.608;19.366;2023-07-13T00:36:26;98769.13;;;22.25;81.85
80116;BME280;69423;47.608;19.366;2023-07-13T00:36:57;98766.34;;;22.20;82.33
80116;BME280;69423;47.608;19.366;2023-07-13T00:37:29;98762.25;;;22.17;82.75
80116;BME280;69423;47.608;19.366;2023-07-13T00:38:00;98761.44;;;22.17;82.75
80116;BME280;69423;47.608;19.366;2023-07-13T00:38:31;98752.22;;;22.18;82.89
80116;BME280;69423;47.608;19.366;2023-07-13T00:39:02;98755.47;;;22.15;82.93
80116;BME280;69423;47.608;19.366;2023-07-13T00:39:35;98747.03;;;22.11;83.09
80116;BME280;69423;47.608;19.366;2023-07-13T00:40:07;98746.16;;;22.06;83.91
80116;BME280;69423;47.608;19.366;2023-07-13T00:40:40;98744.56;;;22.10;83.88
80116;BME280;69423;47.608;19.366;2023-07-13T00:41:11;98744.56;;;22.10;84.21
80116;BME280;69423;47.608;19.366;2023-07-13T00:41:42;98740.19;;;22.03;84.39
80116;BME280;69423;47.608;19.366;2023-07-13T00:42:15;98741.00;;;22.04;84.55
80116;BME280;69423;47.608;19.366;2023-07-13T00:42:46;98729.25;;;21.93;83.84
80116;BME280;69423;47.608;19.366;2023-07-13T00:43:20;98736.34;;;21.99;83.84
80116;BME280;69423;47.608;19.366;2023-07-13T00:43:51;98739.63;;;22.01;84.15
80116;BME280;69423;47.608;19.366;2023-07-13T00:44:22;98731.72;;;21.95;84.57
80116;BME280;69423;47.608;19.366;2023-07-13T00:46:49;98706.91;;;21.76;85.26
80116;BME280;69423;47.608;19.366;2023-07-13T00:47:20;98707.22;;;21.79;84.86
80116;BME280;69423;47.608;19.366;2023-07-13T00:47:51;98694.44;;;21.80;85.15
80116;BME280;69423;47.608;19.366;2023-07-13T00:48:27;98689.25;;;21.73;85.33
80116;BME280;69423;47.608;19.366;2023-07-13T00:49:04;98677.03;;;21.71;85.10
80116;BME280;69423;47.608;19.366;2023-07-13T00:49:36;98665.91;;;21.72;85.59
80116;BME280;69423;47.608;19.366;2023-07-13T00:50:12;98662.38;;;21.72;85.55
80116;BME280;69423;47.608;19.366;2023-07-13T00:50:48;98658.03;;;21.71;85.44
80116;BME280;69423;47.608;19.366;2023-07-13T00:51:25;98646.41;;;21.75;85.31
80116;BME280;69423;47.608;19.366;2023-07-13T00:52:07;98643.69;;;21.80;85.31
80116;BME280;69423;47.608;19.366;2023-07-13T00:52:41;98641.53;;;21.82;85.32
80116;BME280;69423;47.608;19.366;2023-07-13T00:53:16;98648.06;;;21.87;85.67
80116;BME280;69423;47.608;19.366;2023-07-13T00:53:48;98644.00;;;21.84;85.29
80116;BME280;69423;47.608;19.366;2023-07-13T00:54:41;98652.13;;;21.84;85.93
80116;BME280;69423;47.608;19.366;2023-07-13T00:55:15;98640.72;;;21.82;85.31
80116;BME280;69423;47.608;19.366;2023-07-13T00:55:50;98639.38;;;21.85;85.61
80116;BME280;69423;47.608;19.366;2023-07-13T00:56:22;98635.00;;;21.78;85.73
80116;BME280;69423;47.608;19.366;2023-07-13T00:56:57;98633.66;;;21.81;84.83
80116;BME280;69423;47.608;19.366;2023-07-13T00:57:29;98625.50;;;21.81;84.42
80116;BME280;69423;47.608;19.366;2023-07-13T00:58:01;98622.28;;;21.84;84.73
80116;BME280;69423;47.608;19.366;2023-07-13T00:58:33;98623.09;;;21.85;85.10
80116;BME280;69423;47.608;19.366;2023-07-13T00:59:07;98619.00;;;21.82;85.09
80116;BME280;69423;47.608;19.366;2023-07-13T00:59:42;98620.63;;;21.83;85.39
80116;BME280;69423;47.608;19.366;2023-07-13T01:00:13;98622.56;;;21.88;85.94
80116;BME280;69423;47.608;19.366;2023-07-13T01:00:47;98633.44;;;21.88;85.15
80116;BME280;69423;47.608;19.366;2023-07-13T01:01:19;98636.41;;;21.86;85.30
80116;BME280;69423;47.608;19.366;2023-07-13T01:01:51;98638.03;;;21.87;85.69
80116;BME280;69423;47.608;19.366;2023-07-13T01:02:22;98650.78;;;21.81;86.26
80116;BME280;69423;47.608;19.366;2023-07-13T01:02:53;98655.91;;;21.78;86.79
80116;BME280;69423;47.608;19.366;2023-07-13T01:03:25;98652.63;;;21.76;87.05
80116;BME280;69423;47.608;19.366;2023-07-13T01:03:56;98661.75;;;21.54;87.30
80116;BME280;69423;47.608;19.366;2023-07-13T01:04:27;98659.22;;;21.42;87.54
80116;BME280;69423;47.608;19.366;2023-07-13T01:04:59;98652.19;;;21.47;87.53
80116;BME280;69423;47.608;19.366;2023-07-13T01:05:32;98650.34;;;21.52;87.08
80116;BME280;69423;47.608;19.366;2023-07-13T01:06:04;98649.25;;;21.53;87.19
80116;BME280;69423;47.608;19.366;2023-07-13T01:06:37;98641.66;;;21.55;87.17
80116;BME280;69423;47.608;19.366;2023-07-13T01:07:08;98633.28;;;21.57;86.85
80116;BME280;69423;47.608;19.366;2023-07-13T01:07:41;98630.56;;;21.57;87.22
80116;BME280;69423;47.608;19.366;2023-07-13T01:08:13;98624.59;;;21.60;87.54
80116;BME280;69423;47.608;19.366;2023-07-13T01:08:44;98628.97;;;21.61;87.02
80116;BME280;69423;47.608;19.366;2023-07-13T01:09:15;98621.06;;;21.59;87.24
80116;BME280;69423;47.608;19.366;2023-07-13T01:09:46;98621.88;;;21.60;86.83
80116;BME280;69423;47.608;19.366;2023-07-13T01:10:21;98610.47;;;21.58;87.53
80116;BME280;69423;47.608;19.366;2023-07-13T01:10:57;98615.66;;;21.59;87.53
80116;BME280;69423;47.608;19.366;2023-07-13T01:11:28;98605.59;;;21.55;88.03
80116;BME280;69423;47.608;19.366;2023-07-13T01:12:00;98606.66;;;21.54;87.92
80116;BME280;69423;47.608;19.366;2023-07-13T01:12:31;98605.34;;;21.56;88.45
80116;BME280;69423;47.608;19.366;2023-07-13T01:13:02;98602.34;;;21.58;87.94
80116;BME280;69423;47.608;19.366;2023-07-13T01:13:34;98601.00;;;21.60;87.69
80116;BME280;69423;47.608;19.366;2023-07-13T01:14:05;98603.19;;;21.58;86.91
80116;BME280;69423;47.608;19.366;2023-07-13T01:14:36;98605.34;;;21.61;87.13
80116;BME280;69423;47.608;19.366;2023-07-13T01:16:24;98591.78;;;21.56;82.53
80116;BME280;69423;47.608;19.366;2023-07-13T01:16:56;98589.06;;;21.56;82.38
80116;BME280;69423;47.608;19.366;2023-07-13T01:17:31;98586.59;;;21.55;80.83
80116;BME280;69423;47.608;19.366;2023-07-13T01:18:05;98587.94;;;21.52;81.24
80116;BME280;69423;47.608;19.366;2023-07-13T01:18:37;98587.91;;;21.47;81.88
80116;BME280;69423;47.608;19.366;2023-07-13T01:20:07;98586.00;;;21.48;81.38
80116;BME280;69423;47.608;19.366;2023-07-13T01:20:40;98579.25;;;21.50;82.36
80116;BME280;69423;47.608;19.366;2023-07-13T01:21:11;98585.25;;;21.52;82.58
80116;BME280;69423;47.608;19.366;2023-07-13T01:21:42;98583.34;;;21.53;83.78
80116;BME280;69423;47.608;19.366;2023-07-13T01:22:16;98587.91;;;21.47;81.68
80116;BME280;69423;47.608;19.366;2023-07-13T01:22:48;98588.50;;;21.54;80.72
80116;BME280;69423;47.608;19.366;2023-07-13T01:23:19;98600.72;;;21.57;82.37
80116;BME280;69423;47.608;19.366;2023-07-13T01:23:50;98608.59;;;21.58;83.09
80116;BME280;69423;47.608;19.366;2023-07-13T01:24:21;98604.78;;;21.54;83.52
80116;BME280;69423;47.608;19.366;2023-07-13T01:24:53;98601.47;;;21.47;84.29
80116;BME280;69423;47.608;19.366;2023-07-13T01:25:25;98607.34;;;21.39;84.47
80116;BME280;69423;47.608;19.366;2023-07-13T01:25:57;98612.22;;;21.37;85.01
80116;BME280;69423;47.608;19.366;2023-07-13T01:26:28;98612.22;;;21.37;85.16
80116;BME280;69423;47.608;19.366;2023-07-13T01:26:59;98608.16;;;21.39;85.58
80116;BME280;69423;47.608;19.366;2023-07-13T01:27:30;98610.88;;;21.39;85.31
80116;BME280;69423;47.608;19.366;2023-07-13T01:28:03;98608.41;;;21.33;86.01
80116;BME280;69423;47.608;19.366;2023-07-13T01:28:34;98610.28;;;21.27;87.01
80116;BME280;69423;47.608;19.366;2023-07-13T01:29:07;98607.03;;;21.25;86.79
80116;BME280;69423;47.608;19.366;2023-07-13T01:29:40;98613.25;;;21.26;86.98
80116;BME280;69423;47.608;19.366;2023-07-13T01:30:12;98611.91;;;21.28;86.63
80116;BME280;69423;47.608;19.366;2023-07-13T01:30:45;98612.22;;;21.32;87.10
80116;BME280;69423;47.608;19.366;2023-07-13T01:31:16;98614.38;;;21.35;86.85
80116;BME280;69423;47.608;19.366;2023-07-13T01:31:47;98617.66;;;21.37;86.61
80116;BME280;69423;47.608;19.366;2023-07-13T01:32:20;98620.38;;;21.37;87.11
80116;BME280;69423;47.608;19.366;2023-07-13T01:32:52;98619.31;;;21.38;86.72
80116;BME280;69423;47.608;19.366;2023-07-13T01:33:23;98615.44;;;21.29;87.19
80116;BME280;69423;47.608;19.366;2023-07-13T01:33:55;98608.09;;;21.24;87.46
80116;BME280;69423;47.608;19.366;2023-07-13T01:34:28;98612.94;;;21.17;87.84
80116;BME280;69423;47.608;19.366;2023-07-13T01:34:59;98606.41;;;21.13;88.15
80116;BME280;69423;47.608;19.366;2023-07-13T01:35:30;98611.25;;;21.11;88.00
80116;BME280;69423;47.608;19.366;2023-07-13T01:36:01;98601.47;;;21.10;88.25
80116;BME280;69423;47.608;19.366;2023-07-13T01:36:32;98604.44;;;21.08;88.28
80116;BME280;69423;47.608;19.366;2023-07-13T01:37:05;98595.25;;;21.09;88.07
80116;BME280;69423;47.608;19.366;2023-07-13T01:37:36;98592.78;;;21.08;88.38
80116;BME280;69423;47.608;19.366;2023-07-13T01:38:07;98597.41;;;21.07;88.39
80116;BME280;69423;47.608;19.366;2023-07-13T01:38:39;98587.38;;;21.08;88.71
80116;BME280;69423;47.608;19.366;2023-07-13T01:39:10;98586.56;;;21.07;88.65
80116;BME280;69423;47.608;19.366;2023-07-13T01:39:41;98589.78;;;21.04;88.16
80116;BME280;69423;47.608;19.366;2023-07-13T01:40:12;98590.88;;;21.08;88.48
80116;BME280;69423;47.608;19.366;2023-07-13T01:40:43;98598.50;;;21.11;89.28
80116;BME280;69423;47.608;19.366;2023-07-13T01:41:15;98595.81;;;21.16;89.34
80116;BME280;69423;47.608;19.366;2023-07-13T01:41:46;98596.38;;;21.18;88.85
80116;BME280;69423;47.608;19.366;2023-07-13T01:42:17;98606.16;;;21.19;88.00
80116;BME280;69423;47.608;19.366;2023-07-13T01:42:48;98609.44;;;21.21;88.37
80116;BME280;69423;47.608;19.366;2023-07-13T01:43:19;98610.50;;;21.20;88.60
80116;BME280;69423;47.608;19.366;2023-07-13T01:43:51;98608.00;;;21.14;88.50
80116;BME280;69423;47.608;19.366;2023-07-13T01:44:22;98617.97;;;21.03;89.04
80116;BME280;69423;47.608;19.366;2023-07-13T01:44:53;98625.84;;;21.05;89.68
80116;BME280;69423;47.608;19.366;2023-07-13T01:45:24;98614.72;;;21.06;89.39
80116;BME280;69423;47.608;19.366;2023-07-13T01:45:55;98614.78;;;21.11;89.31
80116;BME280;69423;47.608;19.366;2023-07-13T01:46:26;98614.78;;;21.11;89.28
80116;BME280;69423;47.608;19.366;2023-07-13T01:46:57;98609.84;;;21.08;88.75
80116;BME280;69423;47.608;19.366;2023-07-13T01:47:28;98614.78;;;21.11;89.12
80116;BME280;69423;47.608;19.366;2023-07-13T01:48:01;98604.19;;;21.10;89.01
80116;BME280;69423;47.608;19.366;2023-07-13T01:48:32;98606.34;;;21.08;89.32
80116;BME280;69423;47.608;19.366;2023-07-13T01:49:03;98604.19;;;21.10;88.93
80116;BME280;69423;47.608;19.366;2023-07-13T01:49:34;98603.94;;;21.11;89.28
80116;BME280;69423;47.608;19.366;2023-07-13T01:50:05;98605.00;;;21.10;88.92
80116;BME280;69423;47.608;19.366;2023-07-13T01:50:37;98595.00;;;21.11;88.99
80116;BME280;69423;47.608;19.366;2023-07-13T01:51:08;98593.09;;;21.11;88.77
80116;BME280;69423;47.608;19.366;2023-07-13T01:51:39;98595.25;;;21.14;89.04
80116;BME280;69423;47.608;19.366;2023-07-13T01:52:10;98601.78;;;21.13;88.79
80116;BME280;69423;47.608;19.366;2023-07-13T01:52:41;98593.66;;;21.13;89.02
80116;BME280;69423;47.608;19.366;2023-07-13T01:53:12;98592.53;;;21.09;88.53
80116;BME280;69423;47.608;19.366;2023-07-13T01:53:43;98589.56;;;21.11;88.77
80116;BME280;69423;47.608;19.366;2023-07-13T01:54:14;98596.88;;;21.10;88.36
80116;BME280;69423;47.608;19.366;2023-07-13T01:54:45;98599.56;;;21.10;89.06
80116;BME280;69423;47.608;19.366;2023-07-13T01:55:17;98602.28;;;21.10;89.11
80116;BME280;69423;47.608;19.366;2023-07-13T01:55:48;98601.47;;;21.10;89.01
80116;BME280;69423;47.608;19.366;2023-07-13T01:56:19;98594.72;;;21.12;89.21
80116;BME280;69423;47.608;19.366;2023-07-13T01:56:50;98598.50;;;21.11;88.77
80116;BME280;69423;47.608;19.366;2023-07-13T01:57:21;98597.94;;;21.09;89.09
80116;BME280;69423;47.608;19.366;2023-07-13T01:57:52;98600.69;;;21.14;88.85
80116;BME280;69423;47.608;19.366;2023-07-13T01:58:23;98603.16;;;21.16;89.19
80116;BME280;69423;47.608;19.366;2023-07-13T01:58:54;98597.16;;;21.14;88.85
80116;BME280;69423;47.608;19.366;2023-07-13T01:59:25;98594.72;;;21.12;88.86
80116;BME280;69423;47.608;19.366;2023-07-13T01:59:56;98597.16;;;21.14;88.29
80116;BME280;69423;47.608;19.366;2023-07-13T02:00:27;98596.09;;;21.15;88.09
80116;BME280;69423;47.608;19.366;2023-07-13T02:00:58;98592.00;;;21.12;88.55
80116;BME280;69423;47.608;19.366;2023-07-13T02:01:29;98606.41;;;21.13;88.76
80116;BME280;69423;47.608;19.366;2023-07-13T02:02:00;98596.34;;;21.13;88.73
80116;BME280;69423;47.608;19.366;2023-07-13T02:02:32;98604.22;;;21.15;88.79
80116;BME280;69423;47.608;19.366;2023-07-13T02:03:03;98598.81;;;21.15;89.33
80116;BME280;69423;47.608;19.366;2023-07-13T02:03:34;98599.06;;;21.13;88.51
80116;BME280;69423;47.608;19.366;2023-07-13T02:04:05;98598.50;;;21.11;88.97
80116;BME280;69423;47.608;19.366;2023-07-13T02:04:36;98601.69;;;21.03;88.99
80116;BME280;69423;47.608;19.366;2023-07-13T02:05:07;98600.03;;;20.97;89.36
80116;BME280;69423;47.608;19.366;2023-07-13T02:05:38;98600.34;;;21.00;89.60
80116;BME280;69423;47.608;19.366;2023-07-13T02:06:09;98590.00;;;20.97;89.43
80116;BME280;69423;47.608;19.366;2023-07-13T02:06:40;98600.06;;;21.02;89.54
80116;BME280;69423;47.608;19.366;2023-07-13T02:07:11;98595.19;;;21.04;89.19
80116;BME280;69423;47.608;19.366;2023-07-13T02:07:43;98599.00;;;21.03;89.14
80116;BME280;69423;47.608;19.366;2023-07-13T02:08:14;98595.19;;;21.04;88.63
80116;BME280;69423;47.608;19.366;2023-07-13T02:08:45;98589.75;;;20.99;88.72
80116;BME280;69423;47.608;19.366;2023-07-13T02:09:16;98588.63;;;20.95;88.49
80116;BME280;69423;47.608;19.366;2023-07-13T02:09:47;98586.16;;;20.93;88.72
80116;BME280;69423;47.608;19.366;2023-07-13T02:10:18;98588.13;;;20.98;89.22
80116;BME280;69423;47.608;19.366;2023-07-13T02:10:49;98588.94;;;20.98;89.19
80116;BME280;69423;47.608;19.366;2023-07-13T02:11:20;98587.59;;;21.01;89.02
80116;BME280;69423;47.608;19.366;2023-07-13T02:11:51;98586.78;;;21.00;88.61
80116;BME280;69423;47.608;19.366;2023-07-13T02:12:22;98582.97;;;21.01;88.42
80116;BME280;69423;47.608;19.366;2023-07-13T02:12:53;98579.44;;;20.96;88.63
80116;BME280;69423;47.608;19.366;2023-07-13T02:13:24;98587.59;;;21.01;88.80
80116;BME280;69423;47.608;19.366;2023-07-13T02:13:55;98588.72;;;21.05;88.82
80116;BME280;69423;47.608;19.366;2023-07-13T02:14:26;98584.63;;;21.02;88.77
80116;BME280;69423;47.608;19.366;2023-07-13T02:14:57;98585.69;;;21.01;88.68
80116;BME280;69423;47.608;19.366;2023-07-13T02:15:29;98587.06;;;21.04;88.78
80116;BME280;69423;47.608;19.366;2023-07-13T02:16:00;98581.06;;;21.02;88.48
80116;BME280;69423;47.608;19.366;2023-07-13T02:16:31;98593.81;;;21.01;88.74
80116;BME280;69423;47.608;19.366;2023-07-13T02:17:02;98588.63;;;20.95;89.16
80116;BME280;69423;47.608;19.366;2023-07-13T02:17:34;98585.91;;;20.90;89.43
80116;BME280;69423;47.608;19.366;2023-07-13T02:18:05;98592.38;;;20.89;89.15
80116;BME280;69423;47.608;19.366;2023-07-13T02:18:37;98582.91;;;20.91;88.83
80116;BME280;69423;47.608;19.366;2023-07-13T02:19:08;98584.81;;;20.91;89.13
80116;BME280;69423;47.608;19.366;2023-07-13T02:19:39;98587.50;;;20.91;88.78
80116;BME280;69423;47.608;19.366;2023-07-13T02:20:10;98586.16;;;20.93;89.00
80116;BME280;69423;47.608;19.366;2023-07-13T02:20:42;98590.78;;;20.93;88.80
80116;BME280;69423;47.608;19.366;2023-07-13T02:21:13;98585.38;;;20.93;89.08
80116;BME280;69423;47.608;19.366;2023-07-13T02:21:44;98579.94;;;20.93;88.45
80116;BME280;69423;47.608;19.366;2023-07-13T02:22:15;98588.06;;;20.93;89.01
80116;BME280;69423;47.608;19.366;2023-07-13T02:22:46;98582.66;;;20.93;89.04
80116;BME280;69423;47.608;19.366;2023-07-13T02:23:17;98578.88;;;20.94;89.01
80116;BME280;69423;47.608;19.366;2023-07-13T02:23:48;98589.44;;;20.95;88.80
80116;BME280;69423;47.608;19.366;2023-07-13T02:24:20;98578.59;;;20.95;89.09
80116;BME280;69423;47.608;19.366;2023-07-13T02:24:51;98583.75;;;20.97;89.29
80116;BME280;69423;47.608;19.366;2023-07-13T02:25:23;98576.97;;;20.94;89.05
80116;BME280;69423;47.608;19.366;2023-07-13T02:25:56;98578.59;;;20.95;88.99
80116;BME280;69423;47.608;19.366;2023-07-13T02:26:28;98584.03;;;20.95;88.94
80116;BME280;69423;47.608;19.366;2023-07-13T02:26:59;98570.75;;;20.94;89.08
80116;BME280;69423;47.608;19.366;2023-07-13T02:27:30;98577.22;;;20.93;89.06
80116;BME280;69423;47.608;19.366;2023-07-13T02:28:01;98573.19;;;20.95;88.72
80116;BME280;69423;47.608;19.366;2023-07-13T02:28:32;98574.28;;;20.94;89.22
80116;BME280;69423;47.608;19.366;2023-07-13T02:29:03;98577.47;;;20.91;89.00
80116;BME280;69423;47.608;19.366;2023-07-13T02:29:34;98573.16;;;20.90;88.86
80116;BME280;69423;47.608;19.366;2023-07-13T02:30:05;98576.13;;;20.89;88.73
80116;BME280;69423;47.608;19.366;2023-07-13T02:30:37;98577.22;;;20.88;88.99
80116;BME280;69423;47.608;19.366;2023-07-13T02:31:11;98573.66;;;20.87;88.79
80116;BME280;69423;47.608;19.366;2023-07-13T02:31:42;98576.09;;;20.84;88.57
80116;BME280;69423;47.608;19.366;2023-07-13T02:32:14;98576.09;;;20.84;88.38
80116;BME280;69423;47.608;19.366;2023-07-13T02:32:45;98576.09;;;20.84;88.97
80116;BME280;69423;47.608;19.366;2023-07-13T02:33:16;98572.28;;;20.85;87.94
80116;BME280;69423;47.608;19.366;2023-07-13T02:33:47;98573.88;;;20.80;87.96
80116;BME280;69423;47.608;19.366;2023-07-13T02:34:18;98570.63;;;20.78;88.55
80116;BME280;69423;47.608;19.366;2023-07-13T02:34:49;98573.03;;;20.75;88.45
80116;BME280;69423;47.608;19.366;2023-07-13T02:35:20;98581.94;;;20.70;88.87
80116;BME280;69423;47.608;19.366;2023-07-13T02:35:51;98573.53;;;20.67;88.72
80116;BME280;69423;47.608;19.366;2023-07-13T02:36:22;98578.09;;;20.66;89.56
80116;BME280;69423;47.608;19.366;2023-07-13T02:36:53;98581.91;;;20.65;89.53
80116;BME280;69423;47.608;19.366;2023-07-13T02:37:24;98578.88;;;20.61;89.63
80116;BME280;69423;47.608;19.366;2023-07-13T02:37:56;98577.50;;;20.59;89.88
80116;BME280;69423;47.608;19.366;2023-07-13T02:38:27;98583.16;;;20.57;89.81
80116;BME280;69423;47.608;19.366;2023-07-13T02:39:02;98576.41;;;20.60;89.68
80116;BME280;69423;47.608;19.366;2023-07-13T02:39:33;98584.81;;;20.58;89.85
80116;BME280;69423;47.608;19.366;2023-07-13T02:40:05;98580.22;;;20.59;90.00
80116;BME280;69423;47.608;19.366;2023-07-13T02:40:39;98580.78;;;20.61;89.47
80116;BME280;69423;47.608;19.366;2023-07-13T02:41:10;98577.53;;;20.64;89.18
80116;BME280;69423;47.608;19.366;2023-07-13T02:41:41;98585.66;;;20.64;89.57
80116;BME280;69423;47.608;19.366;2023-07-13T02:42:12;98581.91;;;20.65;89.22
80116;BME280;69423;47.608;19.366;2023-07-13T02:42:43;98584.59;;;20.65;89.35
80116;BME280;69423;47.608;19.366;2023-07-13T02:43:14;98597.03;;;20.61;90.08
80116;BME280;69423;47.608;19.366;2023-07-13T02:43:45;98598.09;;;20.60;89.62
80116;BME280;69423;47.608;19.366;2023-07-13T02:44:16;98598.09;;;20.60;88.03
80116;BME280;69423;47.608;19.366;2023-07-13T02:44:47;98599.66;;;20.56;88.40
80116;BME280;69423;47.608;19.366;2023-07-13T02:45:20;98600.50;;;20.56;88.07
80116;BME280;69423;47.608;19.366;2023-07-13T02:45:51;98606.50;;;20.58;87.22
80116;BME280;69423;47.608;19.366;2023-07-13T02:46:22;98604.00;;;20.57;87.69
80116;BME280;69423;47.608;19.366;2023-07-13T02:46:55;98608.88;;;20.55;87.84
80116;BME280;69423;47.608;19.366;2023-07-13T02:47:26;98608.06;;;20.54;87.62
80116;BME280;69423;47.608;19.366;2023-07-13T02:47:57;98606.06;;;20.45;87.89
80116;BME280;69423;47.608;19.366;2023-07-13T02:48:28;98605.53;;;20.48;88.14
80116;BME280;69423;47.608;19.366;2023-07-13T02:48:59;98601.75;;;20.49;88.14
80116;BME280;69423;47.608;19.366;2023-07-13T02:49:30;98601.19;;;20.47;87.81
80116;BME280;69423;47.608;19.366;2023-07-13T02:50:02;98595.25;;;20.50;87.08
80116;BME280;69423;47.608;19.366;2023-07-13T02:50:33;98602.81;;;20.48;87.50
80116;BME280;69423;47.608;19.366;2023-07-13T02:51:05;98604.22;;;20.50;87.33